Time;durP1;ratioP1;P1;durP2;ratioP2;P2;SDS_P1;SDS_P2;PMS_P1;PMS_P2;Temp;Humidity;BMP_temperature;BMP_pressure;BME280_temperature;BME280_humidity;BME280_pressure;Samples;Min_cycle;Max_cycle;Signal;HPM_P1;HPM_P2
2023/12/04 00:01:47;;;;;;;;;;;;;;;-3.50;100.00;101329.66;5001178;28;19921;-79
2023/12/04 00:04:20;;;;;;;;;;;;;;;-3.51;100.00;101335.97;5016107;28;19971;-79
2023/12/04 00:06:48;;;;;;;;;;;;;;;-3.53;100.00;101331.84;5001206;28;19928;-79
2023/12/04 00:09:23;;;;;;;;;;;;;;;-3.56;100.00;101329.50;5000702;28;19925;-79
2023/12/04 00:11:56;;;;;;;;;;;;;;;-3.59;100.00;101317.38;5002760;28;19932;-79
2023/12/04 00:14:24;;;;;;;;;;;;;;;-3.65;100.00;101321.53;5001868;28;19932;-79
2023/12/04 00:16:58;;;;;;;;;;;;;;;-3.70;100.00;101323.91;5001417;28;19933;-79
2023/12/04 00:19:26;;;;;;;;;;;;;;;-3.72;100.00;101319.75;5001042;28;19930;-79
2023/12/04 00:21:59;;;;;;;;;;;;;;;-3.72;100.00;101319.75;5001562;28;19925;-79
2023/12/04 00:24:32;;;;;;;;;;;;;;;-3.81;100.00;101318.91;5013205;28;19933;-79
2023/12/04 00:27:00;;;;;;;;;;;;;;;-3.83;100.00;101312.94;5007240;28;19925;-79
2023/12/04 00:29:28;;;;;;;;;;;;;;;-3.80;100.00;101302.81;5007752;28;20705;-79
2023/12/04 00:31:56;;;;;;;;;;;;;;;-3.84;100.00;101308.63;5005489;28;19944;-79
2023/12/04 00:34:26;;;;;;;;;;;;;;;-3.87;100.00;101304.47;5008541;28;19925;-79
2023/12/04 00:36:59;;;;;;;;;;;;;;;-3.96;100.00;101305.50;5008317;28;19922;-78
2023/12/04 00:39:27;;;;;;;;;;;;;;;-3.91;100.00;101304.97;5003233;28;19925;-79
2023/12/04 00:42:01;;;;;;;;;;;;;;;-4.01;100.00;101299.84;5018157;28;20012;-80
2023/12/04 00:44:29;;;;;;;;;;;;;;;-4.03;100.00;101299.16;5004295;28;19929;-79
2023/12/04 00:46:57;;;;;;;;;;;;;;;-4.01;100.00;101298.00;5009321;28;19948;-79
2023/12/04 00:49:31;;;;;;;;;;;;;;;-4.02;100.00;101292.84;5001456;28;19979;-79
2023/12/04 00:51:59;;;;;;;;;;;;;;;-4.02;100.00;101283.06;5009515;28;19921;-79
2023/12/04 00:54:27;;;;;;;;;;;;;;;-4.06;100.00;101283.56;5001477;28;19932;-79
2023/12/04 00:57:00;;;;;;;;;;;;;;;-4.04;100.00;101284.22;5005046;28;19925;-79
2023/12/04 00:59:33;;;;;;;;;;;;;;;-4.09;100.00;101284.72;5008790;28;20390;-79
2023/12/04 01:02:01;;;;;;;;;;;;;;;-4.12;100.00;101288.53;5002138;28;19922;-79
2023/12/04 01:04:35;;;;;;;;;;;;;;;-4.10;100.00;101291.88;5005772;28;20369;-79
2023/12/04 01:07:08;;;;;;;;;;;;;;;-4.14;100.00;101277.25;5009276;28;20390;-78
2023/12/04 01:09:41;;;;;;;;;;;;;;;-4.05;100.00;101278.06;5008875;28;20636;-79
2023/12/04 01:12:14;;;;;;;;;;;;;;;-4.04;100.00;101281.56;5005535;28;19921;-79
2023/12/04 01:14:47;;;;;;;;;;;;;;;-4.06;100.00;101279.09;5010885;28;19933;-79
2023/12/04 01:17:15;;;;;;;;;;;;;;;-4.01;100.00;101281.22;5020008;28;19926;-79
2023/12/04 01:19:44;;;;;;;;;;;;;;;-4.03;100.00;101273.44;5008653;28;19929;-79
2023/12/04 01:22:17;;;;;;;;;;;;;;;-4.05;100.00;101274.59;5006617;28;19932;-79
2023/12/04 01:24:45;;;;;;;;;;;;;;;-4.08;100.00;101270.44;5004666;28;20590;-79
2023/12/04 01:27:18;;;;;;;;;;;;;;;-4.16;100.00;101271.25;5002797;28;19929;-79
2023/12/04 01:29:50;;;;;;;;;;;;;;;-4.14;100.00;101263.97;5006626;28;20012;-78
2023/12/04 01:32:23;;;;;;;;;;;;;;;-4.22;100.00;101257.84;5014147;28;19925;-79
2023/12/04 01:34:58;;;;;;;;;;;;;;;-4.29;100.00;101258.50;5002561;28;19925;-78
2023/12/04 01:37:31;;;;;;;;;;;;;;;-4.28;100.00;101254.84;5017437;28;19933;-78
2023/12/04 01:40:06;;;;;;;;;;;;;;;-4.34;100.00;101246.72;5002515;28;20362;-79
2023/12/04 01:42:34;;;;;;;;;;;;;;;-4.36;100.00;101246.06;5003421;28;19925;-79
2023/12/04 01:45:08;;;;;;;;;;;;;;;-4.42;100.00;101242.22;5006579;28;20382;-79
2023/12/04 01:47:41;;;;;;;;;;;;;;;-4.44;100.00;101247.72;5000711;28;20773;-78
2023/12/04 01:50:15;;;;;;;;;;;;;;;-4.49;100.00;101244.75;5004543;28;19928;-79
2023/12/04 01:52:48;;;;;;;;;;;;;;;-4.51;100.00;101237.94;5006353;28;19930;-78
2023/12/04 01:55:17;;;;;;;;;;;;;;;-4.52;100.00;101241.56;5018189;28;19929;-79
2023/12/04 01:57:45;;;;;;;;;;;;;;;-4.51;100.00;101235.28;5019943;28;19926;-79
2023/12/04 02:00:14;;;;;;;;;;;;;;;-4.53;100.00;101239.91;5008051;28;19925;-79
2023/12/04 02:02:43;;;;;;;;;;;;;;;-4.54;100.00;101228.47;5009408;28;19921;-79
2023/12/04 02:05:17;;;;;;;;;;;;;;;-4.63;100.00;101237.44;4998268;28;19925;-79
2023/12/04 02:07:45;;;;;;;;;;;;;;;-4.67;100.00;101239.59;5006320;28;19930;-79
2023/12/04 02:10:18;;;;;;;;;;;;;;;-4.70;100.00;101236.44;5005682;28;19929;-78
2023/12/04 02:12:51;;;;;;;;;;;;;;;-4.74;100.00;101230.59;5001430;28;20279;-79
2023/12/04 02:15:19;;;;;;;;;;;;;;;-4.73;100.00;101226.16;5007059;28;19925;-79
2023/12/04 02:17:47;;;;;;;;;;;;;;;-4.75;100.00;101215.69;5003807;28;19929;-79
2023/12/04 02:20:31;;;;;;;;;;;;;;;-4.73;100.00;101226.97;5019437;28;20393;-79
2023/12/04 02:22:59;;;;;;;;;;;;;;;-4.75;100.00;101225.47;5017781;28;19925;-79
2023/12/04 02:25:33;;;;;;;;;;;;;;;-4.79;100.00;101215.19;5002573;28;19926;-79
2023/12/04 02:28:08;;;;;;;;;;;;;;;-4.86;100.00;101211.53;5006134;28;19925;-79
2023/12/04 02:30:38;;;;;;;;;;;;;;;-4.88;100.00;101216.16;5017827;28;19926;-79
2023/12/04 02:33:11;;;;;;;;;;;;;;;-4.92;100.00;101214.00;5004730;28;20385;-79
2023/12/04 02:35:44;;;;;;;;;;;;;;;-4.98;100.00;101213.66;5003441;28;19928;-79
2023/12/04 02:38:13;;;;;;;;;;;;;;;-4.99;100.00;101203.22;5006157;28;19922;-79
2023/12/04 02:40:48;;;;;;;;;;;;;;;-5.04;100.00;101206.38;5006434;28;19925;-79
2023/12/04 02:43:16;;;;;;;;;;;;;;;-5.05;100.00;101201.22;5000641;28;19926;-78
2023/12/04 02:45:49;;;;;;;;;;;;;;;-5.11;100.00;101200.03;5002512;28;19927;-79
2023/12/04 02:48:21;;;;;;;;;;;;;;;-5.14;100.00;101197.72;5002028;28;19926;-79
2023/12/04 02:50:54;;;;;;;;;;;;;;;-5.12;100.00;101198.41;5002703;28;19922;-78
2023/12/04 02:53:22;;;;;;;;;;;;;;;-5.16;100.00;101197.88;5001204;28;19929;-79
2023/12/04 02:55:57;;;;;;;;;;;;;;;-5.14;100.00;101195.91;5005091;28;19948;-78
2023/12/04 02:58:24;;;;;;;;;;;;;;;-5.15;100.00;101193.41;5016985;28;19937;-79
2023/12/04 03:00:52;;;;;;;;;;;;;;;-5.17;100.00;101179.47;5007126;28;19926;-79
2023/12/04 03:03:20;;;;;;;;;;;;;;;-5.20;100.00;101171.84;5003298;28;19925;-79
2023/12/04 03:05:48;;;;;;;;;;;;;;;-5.20;100.00;101174.50;4999626;28;19928;-78
2023/12/04 03:08:16;;;;;;;;;;;;;;;-5.20;100.00;101172.66;4999775;28;19929;-79
2023/12/04 03:10:49;;;;;;;;;;;;;;;-5.16;100.00;101170.53;5003993;28;20535;-78
2023/12/04 03:13:23;;;;;;;;;;;;;;;-5.28;100.00;101167.34;5008396;28;20329;-78
2023/12/04 03:15:56;;;;;;;;;;;;;;;-5.25;100.00;101160.88;5005768;28;19933;-79
2023/12/04 03:18:29;;;;;;;;;;;;;;;-5.25;100.00;101160.88;5006448;28;19926;-78
2023/12/04 03:20:57;;;;;;;;;;;;;;;-5.29;100.00;101141.81;5003423;28;19928;-78
2023/12/04 03:23:25;;;;;;;;;;;;;;;-5.35;100.00;101159.22;5006560;28;19922;-78
2023/12/04 03:25:58;;;;;;;;;;;;;;;-5.37;100.00;101155.91;5002240;28;19930;-78
2023/12/04 03:28:32;;;;;;;;;;;;;;;-5.40;100.00;101163.34;5004244;28;19930;-78
2023/12/04 03:31:05;;;;;;;;;;;;;;;-5.43;100.00;101151.25;5001567;28;19926;-78
2023/12/04 03:33:38;;;;;;;;;;;;;;;-5.36;100.00;101154.91;5017073;28;19922;-78
2023/12/04 03:36:06;;;;;;;;;;;;;;;-5.38;100.00;101140.97;5002167;28;19929;-78
2023/12/04 03:38:34;;;;;;;;;;;;;;;-5.38;100.00;101140.97;5018423;28;19922;-78
2023/12/04 03:41:13;;;;;;;;;;;;;;;-5.43;100.00;101139.81;4998199;28;19932;-79
2023/12/04 03:43:43;;;;;;;;;;;;;;;-5.46;100.00;101143.63;5005608;28;19933;-78
2023/12/04 03:46:11;;;;;;;;;;;;;;;-5.47;100.00;101134.84;5000644;28;19929;-78
2023/12/04 03:48:44;;;;;;;;;;;;;;;-5.45;100.00;101129.38;5001132;28;20374;-78
2023/12/04 03:51:12;;;;;;;;;;;;;;;-5.51;100.00;101128.19;5007191;28;19925;-78
2023/12/04 03:53:45;;;;;;;;;;;;;;;-5.46;100.00;101127.69;5007828;28;19922;-78
2023/12/04 03:56:18;;;;;;;;;;;;;;;-5.52;100.00;101118.56;5016351;28;19945;-79
2023/12/04 03:58:47;;;;;;;;;;;;;;;-5.47;100.00;101110.97;5001142;28;20579;-79
2023/12/04 04:01:15;;;;;;;2.72;2.28;;;;;;;-5.57;100.00;101104.97;5003525;28;19972;-79
2023/12/04 04:03:49;;;;;;;2.75;2.15;;;;;;;-5.52;100.00;101104.50;5003019;28;20165;-79
2023/12/04 04:06:22;;;;;;;2.88;2.20;;;;;;;-5.51;100.00;101101.69;5005013;28;20050;-79
2023/12/04 04:08:55;;;;;;;2.60;1.88;;;;;;;-5.51;100.00;101096.38;5002653;28;20045;-79
2023/12/04 04:11:28;;;;;;;4.05;2.80;;;;;;;-5.51;100.00;101096.38;5004285;28;20046;-79
2023/12/04 04:14:03;;;;;;;7.05;3.22;;;;;;;-5.51;100.00;101095.53;5001847;28;20513;-79
2023/12/04 04:16:36;;;;;;;7.22;3.90;;;;;;;-5.53;100.00;101086.91;5017700;28;20065;-78
2023/12/04 04:19:04;;;;;;;6.80;3.53;;;;;;;-5.56;100.00;101082.75;5005096;28;20485;-78
2023/12/04 04:21:34;;;;;;;5.20;3.03;;;;;;;-5.51;100.00;101079.59;5016438;28;20053;-78
2023/12/04 04:24:07;;;;;;;5.32;3.97;;;;;;;-5.52;100.00;101070.00;5018322;28;20060;-79
2023/12/04 04:26:35;;;;;;;5.32;2.88;;;;;;;-5.53;100.00;101071.00;5006647;28;20418;-79
2023/12/04 04:29:10;;;;;;;5.15;2.80;;;;;;;-5.60;100.00;101057.56;5007412;28;20052;-79
2023/12/04 04:31:43;;;;;;;5.45;3.47;;;;;;;-5.55;100.00;101051.75;5005217;28;20057;-79
2023/12/04 04:34:11;;;;;;;5.35;3.45;;;;;;;-5.63;100.00;101057.91;5006380;28;20058;-78
2023/12/04 04:36:44;;;;;;;8.38;3.70;;;;;;;-5.60;100.00;101059.41;5002849;28;20502;-79
2023/12/04 04:39:17;;;;;;;3.38;2.40;;;;;;;-5.67;100.00;101053.91;5019318;28;20064;-78
2023/12/04 04:41:51;;;;;;;2.35;2.03;;;;;;;-5.71;100.00;101045.44;5003046;28;20541;-79
2023/12/04 04:44:25;;;;;;;7.28;3.03;;;;;;;-5.69;100.00;101054.09;5005243;28;20053;-79
2023/12/04 04:46:58;;;;;;;4.90;3.70;;;;;;;-5.72;100.00;101050.91;5008866;28;20395;-78
2023/12/04 04:49:26;;;;;;;5.53;3.08;;;;;;;-5.79;100.00;101049.91;5006644;28;20054;-78
2023/12/04 04:51:59;;;;;;;8.25;4.07;;;;;;;-5.78;100.00;101056.88;5005499;28;20053;-78
2023/12/04 04:54:33;;;;;;;5.55;3.83;;;;;;;-5.82;100.00;101053.72;5017045;28;20386;-79
2023/12/04 04:57:01;;;;;;;7.47;3.25;;;;;;;-5.85;100.00;101056.72;5009761;28;20054;-78
2023/12/04 04:59:32;;;;;;;5.47;2.85;;;;;;;-5.92;100.00;101051.22;5005283;28;20054;-78
2023/12/04 05:02:00;;;;;;;4.88;2.42;;;;;;;-5.94;100.00;101045.22;5008122;28;20403;-79
2023/12/04 05:04:33;;;;;;;6.15;3.08;;;;;;;-5.92;100.00;101043.28;5007741;28;20065;-78
2023/12/04 05:07:06;;;;;;;5.80;3.22;;;;;;;-5.88;100.00;101044.59;5006554;28;20057;-78
2023/12/04 05:09:39;;;;;;;4.90;2.38;;;;;;;-5.95;100.00;101040.94;5018331;28;20482;-78
2023/12/04 05:12:08;;;;;;;3.88;3.03;;;;;;;-5.86;100.00;101045.25;5004864;28;20050;-78
2023/12/04 05:14:43;;;;;;;4.65;3.38;;;;;;;-5.81;100.00;101032.34;5004618;28;20489;-79
2023/12/04 05:17:16;;;;;;;5.97;3.88;;;;;;;-5.71;100.00;101034.84;5003781;28;20038;-78
2023/12/04 05:19:49;;;;;;;6.22;4.00;;;;;;;-5.59;100.00;101037.16;5008048;28;20061;-78
2023/12/04 05:22:23;;;;;;;7.03;5.03;;;;;;;-5.51;100.00;101023.91;5004946;28;20603;-78
2023/12/04 05:24:51;;;;;;;5.20;3.15;;;;;;;-5.43;100.00;101034.53;5000971;28;20049;-79
2023/12/04 05:27:24;;;;;;;7.00;3.85;;;;;;;-5.34;100.00;101024.75;4999998;28;20057;-78
2023/12/04 05:29:58;;;;;;;6.18;2.90;;;;;;;-5.28;100.00;101023.25;5005335;28;20046;-78
2023/12/04 05:32:32;;;;;;;4.70;2.45;;;;;;;-5.22;100.00;101011.97;5005069;28;20530;-78
2023/12/04 05:35:06;;;;;;;4.30;3.25;;;;;;;-5.16;100.00;101013.97;5003455;28;20057;-78
2023/12/04 05:37:34;;;;;;;6.05;3.90;;;;;;;-5.10;100.00;101007.97;5014729;28;20061;-79
2023/12/04 05:40:10;;;;;;;8.80;4.43;;;;;;;-5.02;100.00;101015.91;5005109;28;20050;-79
2023/12/04 05:42:44;;;;;;;7.45;4.75;;;;;;;-4.97;100.00;100997.66;5018912;28;20475;-79
2023/12/04 05:45:18;;;;;;;3.33;2.58;;;;;;;-4.93;100.00;101002.63;5000856;28;20050;-79
2023/12/04 05:47:52;;;;;;;4.55;3.05;;;;;;;-4.95;100.00;101002.81;5019020;28;20054;-78
2023/12/04 05:50:20;;;;;;;5.38;3.70;;;;;;;-4.94;100.00;101004.47;5001659;28;20049;-79
2023/12/04 05:52:53;;;;;;;6.25;3.92;;;;;;;-4.94;100.00;101001.81;5010038;28;20426;-79
2023/12/04 05:55:22;;;;;;;7.07;4.00;;;;;;;-4.91;100.00;101000.66;5002675;28;20054;-79
2023/12/04 05:57:55;;;;;;;6.43;4.00;;;;;;;-4.90;100.00;100999.63;5019530;28;20775;-79
2023/12/04 06:00:29;;;;;;;5.28;3.38;;;;;;;-4.94;100.00;100996.50;5000482;28;20042;-79
2023/12/04 06:03:02;;;;;;;6.13;4.07;;;;;;;-4.99;100.00;100996.19;5001512;28;20049;-79
2023/12/04 06:05:36;;;;;;;4.35;3.75;;;;;;;-5.00;100.00;100987.41;5003660;28;20042;-79
2023/12/04 06:08:09;;;;;;;4.60;2.75;;;;;;;-5.02;100.00;100988.56;5003254;28;20046;-79
2023/12/04 06:10:42;;;;;;;9.52;4.07;;;;;;;-5.06;100.00;100989.91;5004656;28;20109;-79
2023/12/04 06:13:15;;;;;;;3.80;3.03;;;;;;;-5.10;100.00;100984.09;5001137;28;20050;-79
2023/12/04 06:15:45;;;;;;;8.75;4.40;;;;;;;-5.19;100.00;100982.44;5007564;28;20054;-79
2023/12/04 06:18:13;;;;;;;6.10;3.33;;;;;;;-5.22;100.00;100975.66;5018656;28;20053;-79
2023/12/04 06:20:46;;;;;;;2.80;2.42;;;;;;;-5.21;100.00;100979.13;5007360;28;20057;-78
2023/12/04 06:23:15;;;;;;;5.03;3.60;;;;;;;-5.23;100.00;100978.47;5001527;28;20057;-79
2023/12/04 06:25:48;;;;;;;4.47;3.03;;;;;;;-5.15;100.00;100978.44;5017986;28;20050;-79
2023/12/04 06:28:17;;;;;;;6.32;3.78;;;;;;;-5.13;100.00;100971.16;5004840;28;20053;-79
2023/12/04 06:30:47;;;;;;;6.38;3.67;;;;;;;-5.06;100.00;100973.97;4999816;28;20065;-79
2023/12/04 06:33:21;;;;;;;4.80;3.33;;;;;;;-5.05;100.00;100973.00;5002892;28;20499;-79
2023/12/04 06:35:55;;;;;;;5.50;3.40;;;;;;;-4.96;100.00;100974.59;5003364;28;20041;-79
2023/12/04 06:38:34;;;;;;;11.73;3.85;;;;;;;-4.96;100.00;100969.28;5018232;28;20906;-79
2023/12/04 06:41:09;;;;;;;3.85;2.50;;;;;;;-4.91;100.00;100964.31;5006280;28;20053;-78
2023/12/04 06:43:38;;;;;;;5.03;3.17;;;;;;;-4.92;100.00;100962.63;5013780;28;20430;-79
2023/12/04 06:46:15;;;;;;;5.95;3.78;;;;;;;-4.84;100.00;100969.75;5020349;28;20057;-80
2023/12/04 06:48:51;;;;;;;7.28;4.38;;;;;;;-4.81;100.00;100972.06;5005599;28;20053;-79
2023/12/04 06:51:19;;;;;;;6.25;3.42;;;;;;;-4.80;100.00;100963.94;5006169;28;20499;-80
2023/12/04 06:53:52;;;;;;;4.15;3.30;;;;;;;-4.72;100.00;100960.44;5018974;28;20064;-79
2023/12/04 06:56:25;;;;;;;4.32;3.50;;;;;;;-4.73;100.00;100953.44;5000875;28;20057;-79
2023/12/04 06:58:58;;;;;;;5.10;3.08;;;;;;;-4.72;100.00;100964.88;5005928;28;20061;-79
2023/12/04 07:01:28;;;;;;;7.47;3.63;;;;;;;-4.65;100.00;100957.91;5003208;28;20114;-79
2023/12/04 07:04:01;;;;;;;4.97;2.78;;;;;;;-4.62;100.00;100944.28;5008042;28;20065;-79
2023/12/04 07:06:35;;;;;;;6.10;3.47;;;;;;;-4.61;100.00;100952.06;5004014;28;20061;-79
2023/12/04 07:09:08;;;;;;;4.22;3.20;;;;;;;-4.64;100.00;100949.78;5001179;28;20053;-79
2023/12/04 07:11:42;;;;;;;7.22;3.97;;;;;;;-4.57;100.00;100944.59;5004708;28;20069;-80
2023/12/04 07:14:15;;;;;;;5.38;2.90;;;;;;;-4.55;100.00;100952.38;5002312;28;20053;-79
2023/12/04 07:16:49;;;;;;;6.05;4.25;;;;;;;-4.57;100.00;100943.75;5017362;28;20738;-79
2023/12/04 07:19:22;;;;;;;11.02;5.43;;;;;;;-4.61;100.00;100954.72;5001758;28;20033;-79
2023/12/04 07:21:56;;;;;;;5.82;3.58;;;;;;;-4.58;100.00;100947.41;4999138;28;20061;-79
2023/12/04 07:24:26;;;;;;;9.43;5.03;;;;;;;-4.54;100.00;100943.41;5000713;28;20060;-79
2023/12/04 07:26:59;;;;;;;8.18;4.93;;;;;;;-4.57;100.00;100939.28;5001241;28;20060;-79
2023/12/04 07:29:32;;;;;;;5.70;3.83;;;;;;;-4.52;100.00;100949.38;5000424;28;20054;-79
2023/12/04 07:32:08;;;;;;;8.13;4.15;;;;;;;-4.52;100.00;100944.88;5002812;28;20054;-79
2023/12/04 07:34:41;;;;;;;6.93;3.92;;;;;;;-4.54;100.00;100943.41;5005490;28;20072;-79
2023/12/04 07:37:14;;;;;;;6.78;4.65;;;;;;;-4.51;100.00;100943.88;5003114;28;20046;-79
2023/12/04 07:39:45;;;;;;;7.13;5.18;;;;;;;-4.46;100.00;100946.84;5003151;28;21625;-80
2023/12/04 07:42:19;;;;;;;7.28;3.53;;;;;;;-4.41;100.00;100940.19;4999282;28;20065;-79
2023/12/04 07:44:52;;;;;;;6.00;4.03;;;;;;;-4.40;100.00;100936.53;5007280;28;20054;-79
2023/12/04 07:47:22;;;;;;;6.13;3.63;;;;;;;-4.38;100.00;100945.16;5002478;28;20057;-79
2023/12/04 07:49:55;;;;;;;7.28;4.38;;;;;;;-4.35;100.00;100935.00;5001320;28;20046;-79
2023/12/04 07:52:28;;;;;;;3.20;2.72;;;;;;;-4.31;100.00;100930.16;5005539;28;20073;-79
2023/12/04 07:55:02;;;;;;;5.43;3.45;;;;;;;-4.33;100.00;100934.84;5001013;28;20037;-79
2023/12/04 07:57:35;;;;;;;5.05;3.28;;;;;;;-4.18;100.00;100935.72;5000083;28;20046;-79
2023/12/04 08:00:10;;;;;;;5.97;2.63;;;;;;;-4.24;100.00;100927.63;4999934;28;20494;-79
2023/12/04 08:02:40;;;;;;;7.82;3.97;;;;;;;-4.15;100.00;100926.59;5014560;28;20058;-79
2023/12/04 08:05:14;;;;;;;7.15;4.10;;;;;;;-4.21;100.00;100924.63;5000633;28;20071;-79
2023/12/04 08:07:47;;;;;;;23.17;11.15;;;;;;;-4.16;100.00;100915.09;4996957;28;20451;-79
2023/12/04 08:10:22;;;;;;;22.45;12.00;;;;;;;-4.12;100.00;100908.44;4996327;28;20436;-79
2023/12/04 08:12:56;;;;;;;24.15;12.10;;;;;;;-4.09;100.00;100899.28;4995627;28;20459;-79
2023/12/04 08:15:29;;;;;;;25.20;11.73;;;;;;;-4.12;100.00;100907.63;5000321;28;20443;-79
2023/12/04 08:18:00;;;;;;;28.33;13.52;;;;;;;-4.00;100.00;100903.53;5000265;28;20421;-82
2023/12/04 08:20:33;;;;;;;27.80;12.75;;;;;;;-4.01;100.00;100896.56;5001685;28;20434;-79
2023/12/04 08:23:06;;;;;;;28.17;12.83;;;;;;;-4.00;100.00;100892.91;4999117;28;20429;-78
2023/12/04 08:25:39;;;;;;;29.55;13.52;;;;;;;-4.03;100.00;100890.59;4996196;28;20440;-78
2023/12/04 08:28:08;;;;;;;40.85;17.98;;;;;;;-3.94;100.00;100894.84;5014987;28;20432;-79
2023/12/04 08:30:41;;;;;;;39.72;17.00;;;;;;;-3.86;100.00;100903.78;5000210;28;21140;-79
2023/12/04 08:33:16;;;;;;;41.40;17.90;;;;;;;-3.81;100.00;100891.59;5001617;28;20444;-78
2023/12/04 08:35:50;;;;;;;38.88;16.33;;;;;;;-3.72;100.00;100900.31;4998447;28;20434;-79
2023/12/04 08:38:24;;;;;;;36.33;15.63;;;;;;;-3.70;100.00;100900.13;5012827;28;20443;-79
2023/12/04 08:40:57;;;;;;;42.05;17.27;;;;;;;-3.71;100.00;100899.31;4999737;28;20513;-83
2023/12/04 08:43:31;;;;;;;39.70;16.00;;;;;;;-3.69;100.00;100907.09;5001027;28;20438;-78
2023/12/04 08:46:04;;;;;;;45.45;18.58;;;;;;;-3.80;100.00;100903.88;5000154;28;20440;-79
2023/12/04 08:48:34;;;;;;;47.92;18.48;;;;;;;-3.69;100.00;100893.81;5002179;28;20422;-78
2023/12/04 08:51:02;;;;;;;42.88;18.27;;;;;;;-3.65;100.00;100895.09;5001636;28;20437;-78
2023/12/04 08:53:36;;;;;;;41.97;17.40;;;;;;;-3.68;100.00;100888.31;5004833;28;20426;-78
2023/12/04 08:56:11;;;;;;;39.72;16.23;;;;;;;-3.63;100.00;100896.56;5005643;28;20543;-78
2023/12/04 08:58:39;;;;;;;42.13;18.08;;;;;;;-3.72;100.00;100900.31;5002728;28;20448;-78
2023/12/04 09:01:12;;;;;;;42.90;17.70;;;;;;;-3.70;100.00;100897.47;4997282;28;20433;-78
2023/12/04 09:03:47;;;;;;;43.97;18.23;;;;;;;-3.73;100.00;100893.31;4999798;28;20440;-79
2023/12/04 09:06:20;;;;;;;42.85;19.45;;;;;;;-3.68;100.00;100900.78;5001128;28;20426;-78
2023/12/04 09:08:47;;;;;;;43.38;18.65;;;;;;;-3.59;100.00;100902.34;5003026;28;20449;-77
2023/12/04 09:11:20;;;;;;;40.92;17.77;;;;;;;-3.61;100.00;100904.38;5018628;28;20421;-78
2023/12/04 09:13:53;;;;;;;41.65;17.55;;;;;;;-3.59;100.00;100905.00;4999905;28;20420;-79
2023/12/04 09:16:27;;;;;;;42.50;16.90;;;;;;;-3.61;100.00;100905.19;5001127;28;20437;-78
2023/12/04 09:18:56;;;;;;;38.70;16.95;;;;;;;-3.54;100.00;100907.94;4950335;28;20427;-78
2023/12/04 09:21:24;;;;;;;41.40;16.98;;;;;;;-3.51;100.00;100909.44;4976817;28;20453;-79
2023/12/04 09:23:53;;;;;;;38.08;16.27;;;;;;;-3.43;100.00;100907.50;4971494;28;20892;-79
2023/12/04 09:26:26;;;;;;;40.43;17.27;;;;;;;-3.42;100.00;100913.69;4989031;28;20486;-79
2023/12/04 09:28:59;;;;;;;41.05;16.05;;;;;;;-3.47;100.00;100919.53;4982321;28;21498;-78
2023/12/04 09:31:32;;;;;;;40.73;16.73;;;;;;;-3.33;100.00;100909.94;5007101;28;20841;-79
2023/12/04 09:34:08;;;;;;;39.67;17.25;;;;;;;-3.42;100.00;100901.19;4993326;28;20822;-79
2023/12/04 09:36:41;;;;;;;41.92;17.98;;;;;;;-3.35;100.00;100909.28;4998606;28;20429;-79
2023/12/04 09:39:10;;;;;;;46.15;18.98;;;;;;;-3.31;100.00;100907.91;4989618;28;20956;-79
2023/12/04 09:41:44;;;;;;;40.80;17.30;;;;;;;-3.30;100.00;100904.22;4993533;28;20445;-78
2023/12/04 09:44:18;;;;;;;41.72;18.23;;;;;;;-3.30;100.00;100903.38;4981478;28;20471;-79
2023/12/04 09:46:52;;;;;;;44.70;18.83;;;;;;;-3.36;100.00;100902.28;4984191;28;20854;-79
2023/12/04 09:49:29;;;;;;;39.67;17.70;;;;;;;-3.37;100.00;100898.00;4988161;28;20849;-79
2023/12/04 09:52:03;;;;;;;43.67;17.60;;;;;;;-3.35;100.00;100903.94;4982215;28;20434;-78
2023/12/04 09:54:33;;;;;;;44.63;18.17;;;;;;;-3.45;100.00;100900.75;4993437;28;20413;-78
2023/12/04 09:57:06;;;;;;;39.15;17.40;;;;;;;-3.32;100.00;100892.94;4993786;28;20434;-79
2023/12/04 09:59:36;;;;;;;44.85;17.63;;;;;;;-3.38;100.00;100898.16;4984757;28;21066;-79
2023/12/04 10:02:10;;;;;;;41.33;18.70;;;;;;;-3.39;100.00;100883.22;4990451;28;20425;-79
2023/12/04 10:04:45;;;;;;;45.88;20.85;;;;;;;-3.26;100.00;100888.72;4983137;28;20434;-78
2023/12/04 10:07:18;;;;;;;42.00;18.43;;;;;;;-3.11;100.00;100886.91;4984095;28;20826;-78
2023/12/04 10:09:52;;;;;;;44.28;17.60;;;;;;;-3.08;100.00;100880.34;4990429;28;20444;-79
2023/12/04 10:12:21;;;;;;;38.53;17.08;;;;;;;-3.12;100.00;100873.75;4989758;28;20861;-79
2023/12/04 10:15:06;;;;;;;44.25;17.30;;;;;;;-3.12;100.00;100868.41;4993045;28;20940;-79
2023/12/04 10:17:43;;;;;;;39.73;17.17;;;;;;;-3.01;100.00;100859.97;4959951;28;20437;-79
2023/12/04 10:20:17;;;;;;;39.85;17.25;;;;;;;-2.92;100.00;100860.69;4989272;28;20428;-79
2023/12/04 10:22:54;;;;;;;40.78;17.88;;;;;;;-2.98;100.00;100853.47;4989854;28;20428;-79
2023/12/04 10:25:29;;;;;;;52.67;25.10;;;;;;;-3.05;100.00;100852.53;4989942;28;20437;-79
2023/12/04 10:28:10;;;;;;;47.80;21.17;;;;;;;-2.96;100.00;100854.09;4987999;28;20427;-79
2023/12/04 10:30:44;;;;;;;46.45;21.17;;;;;;;-2.92;100.00;100850.84;4989691;28;20440;-79
2023/12/04 10:33:14;;;;;;;44.47;20.02;;;;;;;-2.99;100.00;100849.13;4994790;28;20970;-79
2023/12/04 10:35:44;;;;;;;40.13;17.27;;;;;;;-2.95;100.00;100842.44;4992671;28;20419;-79
2023/12/04 10:38:19;;;;;;;41.42;17.73;;;;;;;-2.88;100.00;100837.19;4990115;28;21864;-79
2023/12/04 10:40:52;;;;;;;45.35;21.65;;;;;;;-2.78;100.00;100832.38;4987163;28;20441;-79
2023/12/04 10:43:25;;;;;;;41.00;17.77;;;;;;;-2.79;100.00;100825.38;4988247;28;20438;-79
2023/12/04 10:45:54;;;;;;;36.88;16.45;;;;;;;-2.79;100.00;100815.56;4982456;28;20441;-79
2023/12/04 10:48:23;;;;;;;40.28;17.55;;;;;;;-2.75;100.00;100821.34;4986847;28;20438;-79
2023/12/04 10:50:58;;;;;;;38.95;17.30;;;;;;;-2.83;100.00;100808.97;4986438;28;20512;-79
2023/12/04 10:53:32;;;;;;;41.53;18.30;;;;;;;-2.89;100.00;100807.06;4987943;28;20426;-79
2023/12/04 10:56:07;;;;;;;41.03;17.85;;;;;;;-2.84;100.00;100809.97;4991691;28;20462;-79
2023/12/04 10:58:40;;;;;;;41.97;17.88;;;;;;;-2.91;100.00;100806.44;4983557;28;20439;-79
2023/12/04 11:01:15;;;;;;;39.45;16.85;;;;;;;-2.77;100.00;100808.22;4983498;28;20439;-79
2023/12/04 11:03:51;;;;;;;42.53;18.33;;;;;;;-2.69;100.00;100809.94;4990061;28;20428;-79
2023/12/04 11:06:30;;;;;;;37.70;17.00;;;;;;;-2.69;100.00;100793.13;4983993;28;20479;-79
2023/12/04 11:09:00;;;;;;;37.83;17.00;;;;;;;-2.76;100.00;100795.72;4982840;28;20423;-79
2023/12/04 11:11:37;;;;;;;39.17;17.73;;;;;;;-2.73;100.00;100790.03;4983087;28;20429;-79
2023/12/04 11:14:09;;;;;;;43.87;18.10;;;;;;;-2.64;100.00;100796.03;4984996;28;20542;-79
2023/12/04 11:16:45;;;;;;;40.42;17.20;;;;;;;-2.75;100.00;100781.38;4974214;28;20436;-79
2023/12/04 11:19:23;;;;;;;38.97;16.90;;;;;;;-2.64;100.00;100788.03;4974471;28;20423;-79
2023/12/04 11:21:59;;;;;;;41.37;17.07;;;;;;;-2.61;100.00;100779.66;4977188;28;20534;-79
2023/12/04 11:24:28;;;;;;;39.60;16.55;;;;;;;-2.63;100.00;100776.38;4989947;28;20427;-79
2023/12/04 11:26:57;;;;;;;36.65;17.13;;;;;;;-2.53;100.00;100771.53;4981877;28;20436;-79
2023/12/04 11:29:33;;;;;;;38.13;17.27;;;;;;;-2.57;100.00;100767.63;4983057;28;20454;-79
2023/12/04 11:32:07;;;;;;;37.63;17.40;;;;;;;-2.45;100.00;100768.75;4989972;28;20434;-78
2023/12/04 11:34:48;;;;;;;36.13;15.93;;;;;;;-2.57;100.00;100767.63;4987095;28;20430;-79
2023/12/04 11:37:24;;;;;;;40.10;17.00;;;;;;;-2.44;100.00;100765.09;4981614;28;20430;-80
2023/12/04 11:39:58;;;;;;;38.45;16.90;;;;;;;-2.45;100.00;100759.94;4990263;28;20426;-79
2023/12/04 11:42:32;;;;;;;40.95;17.25;;;;;;;-2.46;100.00;100756.47;4983275;28;20433;-79
2023/12/04 11:45:01;;;;;;;37.63;16.13;;;;;;;-2.51;100.00;100758.88;4985320;28;20428;-79
2023/12/04 11:47:52;;;;;;;37.97;16.20;;;;;;;-2.37;100.00;100754.47;4995545;28;20475;-80
2023/12/04 11:50:26;;;;;;;34.03;15.25;;;;;;;-2.46;100.00;100755.63;4985698;28;20423;-79
2023/12/04 11:52:55;;;;;;;36.63;15.63;;;;;;;-2.64;100.00;100735.59;4990965;28;20437;-78
2023/12/04 11:55:28;;;;;;;35.75;15.43;;;;;;;-2.54;100.00;100743.28;4982259;28;20425;-79
2023/12/04 11:57:57;;;;;;;34.80;15.25;;;;;;;-2.37;100.00;100740.34;4988506;28;20420;-79